首页
METAR-TAF:

METAR-TAF

机场 :

格拉茨, 奥地利

纬度: 47-00N, 经度: 015-26E, 海拔: 340米

当前天气观测

该预报发布于39分钟前的19:20 UTC
风速1节,风向多变
温度 3°C
湿度 56%
气压 1023 hPa
能见度10公里或以上

METAR: LOWG 301920Z AUTO VRB01KT 9999 NSC 03/M05 Q1023

时间: 21:59 (19:59 UTC)

预报

该预报发布于2小时和44分钟前的17:15 UTC
预报有效从30日的 18点(UTC)到 31日的 18点(UTC)
风速5节,风向多变
能见度10公里或以上
少量云层高于6000英尺
短暂存在
从 31日的 12点(UTC)到 31日的 17点(UTC)
风速10节,风向东北
少量云层高于6000英尺, 塔状积云.
散云层高于6500英尺
几率 30% :
短暂存在
从 31日的 14点(UTC)到 31日的 17点(UTC)
散云层高于5000英尺, 塔状积云.
多云层高于6000英尺
阵雨

TAF: LOWG 301715Z 3018/3118 VRB05KT 9999 FEW060 TX07/3113Z TNM02/3104Z TEMPO 3112/3117 04010KT FEW060TCU SCT065 PROB30 TEMPO 3114/3117 SHRA SCT050TCU BKN060

超过4000个机场的气象观测和天气预报(METAR&TAF报告)。

可查询的气象台以黄色和红色小点在地图上表示。

将鼠标移到小点上方,可查看气象台名称。

然后点击查看天气观测和预报。

如需切换地图:点击带黑十字的绿色按钮放大地图;点击带横线的绿色按钮缩小地图;或者点击绿色箭头查看邻近地区的地图。


METAR-TAF: